sensor_id;sensor_type;location;lat;lon;timestamp;P1;durP1;ratioP1;P2;durP2;ratioP2
56599;SDS011;51832;48.152;11.530;2022-11-20T00:04:58;3.42;;;2.35;;
56599;SDS011;51832;48.152;11.530;2022-11-20T00:09:59;2.42;;;1.90;;
56599;SDS011;51832;48.152;11.530;2022-11-20T00:14:59;4.32;;;2.40;;
56599;SDS011;51832;48.152;11.530;2022-11-20T00:20:00;4.22;;;2.03;;
56599;SDS011;51832;48.152;11.530;2022-11-20T00:25:01;5.40;;;2.67;;
56599;SDS011;51832;48.152;11.530;2022-11-20T00:30:01;3.15;;;2.30;;
56599;SDS011;51832;48.152;11.530;2022-11-20T00:35:02;3.22;;;2.53;;
56599;SDS011;51832;48.152;11.530;2022-11-20T00:40:03;4.63;;;2.80;;
56599;SDS011;51832;48.152;11.530;2022-11-20T00:45:04;4.97;;;2.83;;
56599;SDS011;51832;48.152;11.530;2022-11-20T00:50:05;5.10;;;3.00;;
56599;SDS011;51832;48.152;11.530;2022-11-20T00:55:06;4.57;;;2.60;;
56599;SDS011;51832;48.152;11.530;2022-11-20T01:00:06;3.20;;;2.63;;
56599;SDS011;51832;48.152;11.530;2022-11-20T01:05:07;4.00;;;2.80;;
56599;SDS011;51832;48.152;11.530;2022-11-20T01:10:08;4.10;;;2.80;;
56599;SDS011;51832;48.152;11.530;2022-11-20T01:15:09;4.40;;;2.80;;
56599;SDS011;51832;48.152;11.530;2022-11-20T01:20:09;4.05;;;2.60;;
56599;SDS011;51832;48.152;11.530;2022-11-20T01:25:10;4.25;;;2.67;;
56599;SDS011;51832;48.152;11.530;2022-11-20T01:30:11;3.08;;;2.28;;
56599;SDS011;51832;48.152;11.530;2022-11-20T01:35:12;4.18;;;2.40;;
56599;SDS011;51832;48.152;11.530;2022-11-20T01:40:12;3.58;;;2.50;;
56599;SDS011;51832;48.152;11.530;2022-11-20T01:51:02;3.58;;;2.40;;
56599;SDS011;51832;48.152;11.530;2022-11-20T01:56:05;3.55;;;2.83;;
56599;SDS011;51832;48.152;11.530;2022-11-20T02:01:10;2.47;;;2.25;;
56599;SDS011;51832;48.152;11.530;2022-11-20T02:11:23;3.92;;;2.38;;
56599;SDS011;51832;48.152;11.530;2022-11-20T02:16:25;4.70;;;2.50;;
56599;SDS011;51832;48.152;11.530;2022-11-20T02:21:40;3.25;;;2.05;;
56599;SDS011;51832;48.152;11.530;2022-11-20T02:26:56;3.10;;;2.17;;
56599;SDS011;51832;48.152;11.530;2022-11-20T02:32:03;5.82;;;2.80;;
56599;SDS011;51832;48.152;11.530;2022-11-20T02:37:04;3.15;;;2.40;;
56599;SDS011;51832;48.152;11.530;2022-11-20T02:42:04;5.05;;;2.80;;
56599;SDS011;51832;48.152;11.530;2022-11-20T02:47:05;3.78;;;2.80;;
56599;SDS011;51832;48.152;11.530;2022-11-20T02:52:06;3.80;;;2.80;;
56599;SDS011;51832;48.152;11.530;2022-11-20T02:57:07;3.95;;;3.00;;
56599;SDS011;51832;48.152;11.530;2022-11-20T03:02:07;3.63;;;2.65;;
56599;SDS011;51832;48.152;11.530;2022-11-20T03:07:08;3.67;;;2.58;;
56599;SDS011;51832;48.152;11.530;2022-11-20T03:12:09;4.05;;;2.42;;
56599;SDS011;51832;48.152;11.530;2022-11-20T03:17:10;3.03;;;2.63;;
56599;SDS011;51832;48.152;11.530;2022-11-20T03:22:11;5.50;;;2.90;;
56599;SDS011;51832;48.152;11.530;2022-11-20T03:27:11;4.60;;;2.65;;
56599;SDS011;51832;48.152;11.530;2022-11-20T03:32:12;3.95;;;2.80;;
56599;SDS011;51832;48.152;11.530;2022-11-20T03:37:12;4.13;;;2.40;;
56599;SDS011;51832;48.152;11.530;2022-11-20T03:42:13;3.15;;;2.50;;
56599;SDS011;51832;48.152;11.530;2022-11-20T03:47:32;3.83;;;2.50;;
56599;SDS011;51832;48.152;11.530;2022-11-20T03:52:33;3.42;;;2.75;;
56599;SDS011;51832;48.152;11.530;2022-11-20T03:57:33;5.63;;;3.00;;
56599;SDS011;51832;48.152;11.530;2022-11-20T04:02:34;2.95;;;2.33;;
56599;SDS011;51832;48.152;11.530;2022-11-20T04:07:34;3.50;;;2.50;;
56599;SDS011;51832;48.152;11.530;2022-11-20T04:12:35;3.33;;;2.35;;
56599;SDS011;51832;48.152;11.530;2022-11-20T04:17:35;4.70;;;2.53;;
56599;SDS011;51832;48.152;11.530;2022-11-20T04:22:36;3.50;;;2.47;;
56599;SDS011;51832;48.152;11.530;2022-11-20T04:27:36;3.97;;;2.67;;
56599;SDS011;51832;48.152;11.530;2022-11-20T04:32:37;3.92;;;2.85;;
56599;SDS011;51832;48.152;11.530;2022-11-20T04:37:37;2.78;;;2.17;;
56599;SDS011;51832;48.152;11.530;2022-11-20T04:42:38;5.03;;;2.88;;
56599;SDS011;51832;48.152;11.530;2022-11-20T04:47:39;4.15;;;2.45;;
56599;SDS011;51832;48.152;11.530;2022-11-20T04:52:39;3.60;;;2.67;;
56599;SDS011;51832;48.152;11.530;2022-11-20T04:57:40;4.15;;;2.67;;
56599;SDS011;51832;48.152;11.530;2022-11-20T05:02:40;3.78;;;2.80;;
56599;SDS011;51832;48.152;11.530;2022-11-20T05:07:41;4.05;;;2.75;;
56599;SDS011;51832;48.152;11.530;2022-11-20T05:12:41;3.65;;;2.70;;
56599;SDS011;51832;48.152;11.530;2022-11-20T05:17:46;4.55;;;2.95;;
56599;SDS011;51832;48.152;11.530;2022-11-20T05:22:51;5.05;;;2.90;;
56599;SDS011;51832;48.152;11.530;2022-11-20T05:27:51;3.95;;;2.85;;
56599;SDS011;51832;48.152;11.530;2022-11-20T05:32:53;3.83;;;2.92;;
56599;SDS011;51832;48.152;11.530;2022-11-20T05:37:53;3.55;;;2.72;;
56599;SDS011;51832;48.152;11.530;2022-11-20T05:42:54;3.53;;;2.83;;
56599;SDS011;51832;48.152;11.530;2022-11-20T05:47:57;4.35;;;2.90;;
56599;SDS011;51832;48.152;11.530;2022-11-20T05:52:59;3.47;;;2.50;;
56599;SDS011;51832;48.152;11.530;2022-11-20T05:58:00;3.92;;;2.75;;
56599;SDS011;51832;48.152;11.530;2022-11-20T06:03:01;6.13;;;3.10;;
56599;SDS011;51832;48.152;11.530;2022-11-20T06:08:01;2.78;;;2.40;;
56599;SDS011;51832;48.152;11.530;2022-11-20T06:13:02;2.90;;;2.47;;
56599;SDS011;51832;48.152;11.530;2022-11-20T06:18:03;2.65;;;2.33;;
56599;SDS011;51832;48.152;11.530;2022-11-20T06:23:03;3.63;;;2.72;;
56599;SDS011;51832;48.152;11.530;2022-11-20T06:28:04;4.82;;;3.17;;
56599;SDS011;51832;48.152;11.530;2022-11-20T06:33:04;3.10;;;2.70;;
56599;SDS011;51832;48.152;11.530;2022-11-20T06:38:05;3.53;;;2.53;;
56599;SDS011;51832;48.152;11.530;2022-11-20T06:43:05;4.10;;;2.42;;
56599;SDS011;51832;48.152;11.530;2022-11-20T06:48:06;2.08;;;1.88;;
56599;SDS011;51832;48.152;11.530;2022-11-20T06:53:06;2.67;;;2.00;;
56599;SDS011;51832;48.152;11.530;2022-11-20T06:58:07;2.55;;;1.83;;
56599;SDS011;51832;48.152;11.530;2022-11-20T07:03:08;2.33;;;1.90;;
56599;SDS011;51832;48.152;11.530;2022-11-20T07:08:10;2.83;;;2.10;;
56599;SDS011;51832;48.152;11.530;2022-11-20T07:13:11;3.40;;;2.13;;
56599;SDS011;51832;48.152;11.530;2022-11-20T07:18:12;3.65;;;2.25;;
56599;SDS011;51832;48.152;11.530;2022-11-20T07:23:12;4.00;;;2.08;;
56599;SDS011;51832;48.152;11.530;2022-11-20T07:28:13;2.08;;;1.65;;
56599;SDS011;51832;48.152;11.530;2022-11-20T07:33:13;2.92;;;1.77;;
56599;SDS011;51832;48.152;11.530;2022-11-20T07:38:14;2.42;;;1.98;;
56599;SDS011;51832;48.152;11.530;2022-11-20T07:43:14;2.97;;;1.88;;
56599;SDS011;51832;48.152;11.530;2022-11-20T07:48:15;3.67;;;2.20;;
56599;SDS011;51832;48.152;11.530;2022-11-20T07:53:15;5.00;;;2.58;;
56599;SDS011;51832;48.152;11.530;2022-11-20T07:58:20;2.72;;;2.13;;
56599;SDS011;51832;48.152;11.530;2022-11-20T08:03:21;5.15;;;2.47;;
56599;SDS011;51832;48.152;11.530;2022-11-20T08:08:22;4.97;;;2.75;;
56599;SDS011;51832;48.152;11.530;2022-11-20T08:13:22;4.68;;;2.17;;
56599;SDS011;51832;48.152;11.530;2022-11-20T08:18:42;3.20;;;2.17;;
56599;SDS011;51832;48.152;11.530;2022-11-20T08:23:42;4.20;;;2.33;;
56599;SDS011;51832;48.152;11.530;2022-11-20T08:28:43;3.13;;;2.10;;
56599;SDS011;51832;48.152;11.530;2022-11-20T08:33:44;3.22;;;2.15;;
56599;SDS011;51832;48.152;11.530;2022-11-20T08:38:48;2.33;;;1.92;;
56599;SDS011;51832;48.152;11.530;2022-11-20T08:43:50;3.20;;;2.20;;
56599;SDS011;51832;48.152;11.530;2022-11-20T08:48:51;2.53;;;1.85;;
56599;SDS011;51832;48.152;11.530;2022-11-20T08:53:52;3.38;;;2.10;;
56599;SDS011;51832;48.152;11.530;2022-11-20T08:58:52;2.33;;;1.85;;
56599;SDS011;51832;48.152;11.530;2022-11-20T09:03:54;2.85;;;2.30;;
56599;SDS011;51832;48.152;11.530;2022-11-20T09:08:56;2.47;;;1.60;;
56599;SDS011;51832;48.152;11.530;2022-11-20T09:13:57;3.70;;;1.95;;
56599;SDS011;51832;48.152;11.530;2022-11-20T09:18:57;3.30;;;1.92;;
56599;SDS011;51832;48.152;11.530;2022-11-20T09:23:58;6.05;;;3.50;;
56599;SDS011;51832;48.152;11.530;2022-11-20T09:28:58;2.58;;;1.83;;
56599;SDS011;51832;48.152;11.530;2022-11-20T09:33:59;4.07;;;1.50;;
56599;SDS011;51832;48.152;11.530;2022-11-20T09:38:59;1.90;;;1.58;;
56599;SDS011;51832;48.152;11.530;2022-11-20T09:54:44;3.78;;;1.80;;
56599;SDS011;51832;48.152;11.530;2022-11-20T10:05:09;5.95;;;1.85;;
56599;SDS011;51832;48.152;11.530;2022-11-20T10:10:34;2.00;;;1.67;;
56599;SDS011;51832;48.152;11.530;2022-11-20T10:21:16;2.57;;;1.50;;
56599;SDS011;51832;48.152;11.530;2022-11-20T10:26:44;1.50;;;1.40;;
56599;SDS011;51832;48.152;11.530;2022-11-20T10:31:59;2.25;;;1.33;;
56599;SDS011;51832;48.152;11.530;2022-11-20T10:37:35;2.53;;;1.35;;
56599;SDS011;51832;48.152;11.530;2022-11-20T10:42:32;1.90;;;1.50;;
56599;SDS011;51832;48.152;11.530;2022-11-20T10:47:34;2.35;;;1.55;;
56599;SDS011;51832;48.152;11.530;2022-11-20T10:57:44;1.75;;;1.35;;
56599;SDS011;51832;48.152;11.530;2022-11-20T11:02:53;1.50;;;1.40;;
56599;SDS011;51832;48.152;11.530;2022-11-20T11:07:56;1.33;;;1.13;;
56599;SDS011;51832;48.152;11.530;2022-11-20T11:12:58;7.82;;;1.85;;
56599;SDS011;51832;48.152;11.530;2022-11-20T11:17:59;2.25;;;1.40;;
56599;SDS011;51832;48.152;11.530;2022-11-20T11:22:59;1.42;;;1.20;;
56599;SDS011;51832;48.152;11.530;2022-11-20T11:28:22;2.78;;;1.42;;
56599;SDS011;51832;48.152;11.530;2022-11-20T11:33:26;2.42;;;1.10;;
56599;SDS011;51832;48.152;11.530;2022-11-20T11:38:36;1.83;;;1.60;;
56599;SDS011;51832;48.152;11.530;2022-11-20T11:43:38;2.25;;;1.50;;
56599;SDS011;51832;48.152;11.530;2022-11-20T11:48:59;1.88;;;1.20;;
56599;SDS011;51832;48.152;11.530;2022-11-20T11:54:47;1.60;;;1.50;;
56599;SDS011;51832;48.152;11.530;2022-11-20T12:05:00;2.47;;;1.90;;
56599;SDS011;51832;48.152;11.530;2022-11-20T12:10:14;2.00;;;1.40;;
56599;SDS011;51832;48.152;11.530;2022-11-20T12:15:25;2.63;;;1.90;;
56599;SDS011;51832;48.152;11.530;2022-11-20T12:20:32;2.22;;;1.52;;
56599;SDS011;51832;48.152;11.530;2022-11-20T12:25:44;1.67;;;1.20;;
56599;SDS011;51832;48.152;11.530;2022-11-20T12:30:57;3.80;;;2.47;;
56599;SDS011;51832;48.152;11.530;2022-11-20T12:47:12;2.15;;;1.50;;
56599;SDS011;51832;48.152;11.530;2022-11-20T12:52:37;2.00;;;1.60;;
56599;SDS011;51832;48.152;11.530;2022-11-20T12:57:54;1.35;;;1.25;;
56599;SDS011;51832;48.152;11.530;2022-11-20T13:08:38;3.45;;;1.65;;
56599;SDS011;51832;48.152;11.530;2022-11-20T13:19:04;2.28;;;1.63;;
56599;SDS011;51832;48.152;11.530;2022-11-20T13:29:26;3.40;;;1.63;;
56599;SDS011;51832;48.152;11.530;2022-11-20T13:34:27;3.13;;;1.60;;
56599;SDS011;51832;48.152;11.530;2022-11-20T13:39:29;2.30;;;1.83;;
56599;SDS011;51832;48.152;11.530;2022-11-20T13:49:39;1.67;;;1.55;;
56599;SDS011;51832;48.152;11.530;2022-11-20T13:54:55;3.72;;;2.55;;
56599;SDS011;51832;48.152;11.530;2022-11-20T14:00:19;4.53;;;1.95;;
56599;SDS011;51832;48.152;11.530;2022-11-20T14:05:22;3.25;;;2.00;;
56599;SDS011;51832;48.152;11.530;2022-11-20T14:10:27;2.28;;;1.75;;
56599;SDS011;51832;48.152;11.530;2022-11-20T14:15:33;2.97;;;1.70;;
56599;SDS011;51832;48.152;11.530;2022-11-20T14:20:34;1.88;;;1.60;;
56599;SDS011;51832;48.152;11.530;2022-11-20T14:25:34;2.90;;;1.70;;
56599;SDS011;51832;48.152;11.530;2022-11-20T14:30:42;2.83;;;1.83;;
56599;SDS011;51832;48.152;11.530;2022-11-20T14:35:47;2.70;;;1.65;;
56599;SDS011;51832;48.152;11.530;2022-11-20T14:40:49;2.75;;;1.98;;
56599;SDS011;51832;48.152;11.530;2022-11-20T14:45:59;1.85;;;1.45;;
56599;SDS011;51832;48.152;11.530;2022-11-20T14:51:03;1.38;;;0.90;;
56599;SDS011;51832;48.152;11.530;2022-11-20T14:56:03;2.40;;;1.25;;
56599;SDS011;51832;48.152;11.530;2022-11-20T15:01:05;1.10;;;1.00;;
56599;SDS011;51832;48.152;11.530;2022-11-20T15:06:09;1.05;;;0.93;;
56599;SDS011;51832;48.152;11.530;2022-11-20T15:11:18;1.33;;;0.77;;
56599;SDS011;51832;48.152;11.530;2022-11-20T15:16:23;6.25;;;3.33;;
56599;SDS011;51832;48.152;11.530;2022-11-20T15:21:24;1.05;;;0.90;;
56599;SDS011;51832;48.152;11.530;2022-11-20T15:26:25;1.23;;;0.90;;
56599;SDS011;51832;48.152;11.530;2022-11-20T15:31:27;1.80;;;1.20;;
56599;SDS011;51832;48.152;11.530;2022-11-20T15:36:28;1.10;;;1.00;;
56599;SDS011;51832;48.152;11.530;2022-11-20T15:41:28;1.20;;;1.05;;
56599;SDS011;51832;48.152;11.530;2022-11-20T15:46:30;2.70;;;1.40;;
56599;SDS011;51832;48.152;11.530;2022-11-20T15:51:38;1.92;;;1.35;;
56599;SDS011;51832;48.152;11.530;2022-11-20T15:56:48;2.10;;;1.50;;
56599;SDS011;51832;48.152;11.530;2022-11-20T16:01:49;1.83;;;1.40;;
56599;SDS011;51832;48.152;11.530;2022-11-20T16:06:50;3.40;;;1.52;;
56599;SDS011;51832;48.152;11.530;2022-11-20T16:11:50;1.60;;;1.40;;
56599;SDS011;51832;48.152;11.530;2022-11-20T16:16:51;2.67;;;1.77;;
56599;SDS011;51832;48.152;11.530;2022-11-20T16:21:51;3.13;;;1.58;;
56599;SDS011;51832;48.152;11.530;2022-11-20T16:26:55;4.53;;;2.08;;
56599;SDS011;51832;48.152;11.530;2022-11-20T16:31:56;4.00;;;1.90;;
56599;SDS011;51832;48.152;11.530;2022-11-20T16:36:57;2.22;;;1.85;;
56599;SDS011;51832;48.152;11.530;2022-11-20T16:41:57;2.30;;;2.00;;
56599;SDS011;51832;48.152;11.530;2022-11-20T16:46:58;3.88;;;1.92;;
56599;SDS011;51832;48.152;11.530;2022-11-20T16:51:58;2.60;;;2.00;;
56599;SDS011;51832;48.152;11.530;2022-11-20T16:56:59;3.90;;;2.70;;
56599;SDS011;51832;48.152;11.530;2022-11-20T17:01:59;2.80;;;2.47;;
56599;SDS011;51832;48.152;11.530;2022-11-20T17:07:00;4.70;;;2.83;;
56599;SDS011;51832;48.152;11.530;2022-11-20T17:12:01;4.22;;;2.83;;
56599;SDS011;51832;48.152;11.530;2022-11-20T17:17:02;4.82;;;3.20;;
56599;SDS011;51832;48.152;11.530;2022-11-20T17:22:03;6.45;;;3.20;;
56599;SDS011;51832;48.152;11.530;2022-11-20T17:27:03;10.73;;;4.38;;
56599;SDS011;51832;48.152;11.530;2022-11-20T17:32:04;5.53;;;3.15;;
56599;SDS011;51832;48.152;11.530;2022-11-20T17:37:05;4.60;;;3.20;;
56599;SDS011;51832;48.152;11.530;2022-11-20T17:42:05;6.60;;;3.80;;
56599;SDS011;51832;48.152;11.530;2022-11-20T17:47:24;6.72;;;3.33;;
56599;SDS011;51832;48.152;11.530;2022-11-20T17:52:25;5.32;;;3.45;;
56599;SDS011;51832;48.152;11.530;2022-11-20T17:57:26;7.43;;;3.35;;
56599;SDS011;51832;48.152;11.530;2022-11-20T18:02:45;8.38;;;4.30;;
56599;SDS011;51832;48.152;11.530;2022-11-20T18:07:46;6.72;;;4.03;;
56599;SDS011;51832;48.152;11.530;2022-11-20T18:12:46;7.78;;;4.75;;
56599;SDS011;51832;48.152;11.530;2022-11-20T18:17:47;6.30;;;4.05;;
56599;SDS011;51832;48.152;11.530;2022-11-20T18:22:47;6.75;;;3.88;;
56599;SDS011;51832;48.152;11.530;2022-11-20T18:27:48;6.13;;;3.97;;
56599;SDS011;51832;48.152;11.530;2022-11-20T18:32:48;7.32;;;3.75;;
56599;SDS011;51832;48.152;11.530;2022-11-20T18:37:49;5.40;;;4.07;;
56599;SDS011;51832;48.152;11.530;2022-11-20T18:42:49;5.68;;;3.75;;
56599;SDS011;51832;48.152;11.530;2022-11-20T18:48:09;7.03;;;4.40;;
56599;SDS011;51832;48.152;11.530;2022-11-20T18:53:09;7.65;;;4.40;;
56599;SDS011;51832;48.152;11.530;2022-11-20T18:58:10;6.85;;;4.07;;
56599;SDS011;51832;48.152;11.530;2022-11-20T19:03:10;9.10;;;4.03;;
56599;SDS011;51832;48.152;11.530;2022-11-20T19:08:11;7.22;;;3.83;;
56599;SDS011;51832;48.152;11.530;2022-11-20T19:13:11;5.90;;;3.40;;
56599;SDS011;51832;48.152;11.530;2022-11-20T19:18:12;6.22;;;3.70;;
56599;SDS011;51832;48.152;11.530;2022-11-20T19:23:12;6.20;;;3.60;;
56599;SDS011;51832;48.152;11.530;2022-11-20T19:28:13;5.15;;;3.45;;
56599;SDS011;51832;48.152;11.530;2022-11-20T19:33:13;4.55;;;2.97;;
56599;SDS011;51832;48.152;11.530;2022-11-20T19:38:14;4.10;;;2.85;;
56599;SDS011;51832;48.152;11.530;2022-11-20T19:43:14;3.50;;;2.53;;
56599;SDS011;51832;48.152;11.530;2022-11-20T19:48:16;5.18;;;3.03;;
56599;SDS011;51832;48.152;11.530;2022-11-20T19:53:16;4.90;;;2.72;;
56599;SDS011;51832;48.152;11.530;2022-11-20T19:58:17;5.40;;;3.17;;
56599;SDS011;51832;48.152;11.530;2022-11-20T20:03:23;5.00;;;3.20;;
56599;SDS011;51832;48.152;11.530;2022-11-20T20:08:24;3.90;;;2.85;;
56599;SDS011;51832;48.152;11.530;2022-11-20T20:13:24;3.97;;;2.85;;
56599;SDS011;51832;48.152;11.530;2022-11-20T20:18:25;7.43;;;3.45;;
56599;SDS011;51832;48.152;11.530;2022-11-20T20:23:26;5.10;;;3.53;;
56599;SDS011;51832;48.152;11.530;2022-11-20T20:28:26;4.85;;;3.40;;
56599;SDS011;51832;48.152;11.530;2022-11-20T20:33:27;5.22;;;3.22;;
56599;SDS011;51832;48.152;11.530;2022-11-20T20:38:28;4.18;;;2.97;;
56599;SDS011;51832;48.152;11.530;2022-11-20T20:43:28;3.92;;;2.90;;
56599;SDS011;51832;48.152;11.530;2022-11-20T20:48:30;6.78;;;3.25;;
56599;SDS011;51832;48.152;11.530;2022-11-20T20:53:30;4.75;;;3.13;;
56599;SDS011;51832;48.152;11.530;2022-11-20T20:58:31;2.90;;;2.55;;
56599;SDS011;51832;48.152;11.530;2022-11-20T21:03:32;5.55;;;2.95;;
56599;SDS011;51832;48.152;11.530;2022-11-20T21:08:34;2.63;;;2.00;;
56599;SDS011;51832;48.152;11.530;2022-11-20T21:13:36;3.25;;;2.00;;
56599;SDS011;51832;48.152;11.530;2022-11-20T21:18:37;3.35;;;2.17;;
56599;SDS011;51832;48.152;11.530;2022-11-20T21:23:38;1.83;;;1.50;;
56599;SDS011;51832;48.152;11.530;2022-11-20T21:28:40;1.80;;;1.45;;
56599;SDS011;51832;48.152;11.530;2022-11-20T21:33:42;2.85;;;1.40;;
56599;SDS011;51832;48.152;11.530;2022-11-20T21:38:44;1.93;;;1.60;;
56599;SDS011;51832;48.152;11.530;2022-11-20T21:43:46;2.08;;;1.63;;
56599;SDS011;51832;48.152;11.530;2022-11-20T21:48:46;2.42;;;1.67;;
56599;SDS011;51832;48.152;11.530;2022-11-20T21:53:47;3.00;;;2.10;;
56599;SDS011;51832;48.152;11.530;2022-11-20T21:58:49;1.75;;;1.63;;
56599;SDS011;51832;48.152;11.530;2022-11-20T22:03:52;2.00;;;1.30;;
56599;SDS011;51832;48.152;11.530;2022-11-20T22:08:58;2.28;;;1.60;;
56599;SDS011;51832;48.152;11.530;2022-11-20T22:14:00;1.80;;;1.40;;
56599;SDS011;51832;48.152;11.530;2022-11-20T22:19:19;2.55;;;1.85;;
56599;SDS011;51832;48.152;11.530;2022-11-20T22:24:21;2.40;;;2.20;;
56599;SDS011;51832;48.152;11.530;2022-11-20T22:29:22;1.70;;;1.60;;
56599;SDS011;51832;48.152;11.530;2022-11-20T22:34:22;3.50;;;1.92;;
56599;SDS011;51832;48.152;11.530;2022-11-20T22:39:23;2.63;;;1.90;;
56599;SDS011;51832;48.152;11.530;2022-11-20T22:44:23;2.13;;;1.67;;
56599;SDS011;51832;48.152;11.530;2022-11-20T22:49:24;2.33;;;1.50;;
56599;SDS011;51832;48.152;11.530;2022-11-20T22:54:24;2.53;;;1.48;;
56599;SDS011;51832;48.152;11.530;2022-11-20T22:59:25;1.70;;;1.30;;
56599;SDS011;51832;48.152;11.530;2022-11-20T23:04:25;1.15;;;0.93;;
56599;SDS011;51832;48.152;11.530;2022-11-20T23:09:26;0.60;;;0.60;;
56599;SDS011;51832;48.152;11.530;2022-11-20T23:14:27;0.95;;;0.70;;
56599;SDS011;51832;48.152;11.530;2022-11-20T23:19:27;0.95;;;0.80;;
56599;SDS011;51832;48.152;11.530;2022-11-20T23:24:28;0.82;;;0.82;;
56599;SDS011;51832;48.152;11.530;2022-11-20T23:29:28;1.60;;;1.00;;
56599;SDS011;51832;48.152;11.530;2022-11-20T23:34:29;0.82;;;0.50;;
56599;SDS011;51832;48.152;11.530;2022-11-20T23:39:29;0.65;;;0.65;;
56599;SDS011;51832;48.152;11.530;2022-11-20T23:44:31;0.65;;;0.55;;
56599;SDS011;51832;48.152;11.530;2022-11-20T23:49:32;0.68;;;0.63;;
56599;SDS011;51832;48.152;11.530;2022-11-20T23:54:32;0.82;;;0.60;;
56599;SDS011;51832;48.152;11.530;2022-11-20T23:59:33;0.68;;;0.50;;
